2TA4 weather

Mario's Flying Pizza Airport
Sealy, Texas, United States

Public forecast

Using degrees Fahrenheit for public forecast. Weather courtesy of forecast.io.

METAR (pilot weather report)

Closest report is Eagle Lake Airport, 9.0 nm (16.6 km) S. Retrieved 2019/07/20 14:35 UTC (18 minutes ago):

KELA 201435Z AUTO 17008KT 10SM SCT016 31/26 A3000 RMK AO2 T03070258

TAF (pilot weather forecast)

Closest forecast is Sugar Land Regional Airport, 34.0 nm (63.0 km) ESE. Retrieved 2019/07/20 12:33 UTC (2 hours ago):

TAF KSGR 201130Z 2012/2112 18005KT P6SM SCT018 BKN200 FM201500 16006KT P6SM SCT018 BKN045 FM202100 16011KT P6SM FEW035 SCT100 FM210100 15008KT P6SM SCT035 BKN150 FM211000 00000KT P6SM FEW020 SCT150